Time;durP1;ratioP1;P1;durP2;ratioP2;P2;SDS_P1;SDS_P2;PMS_P1;PMS_P2;Temp;Humidity;BMP_temperature;BMP_pressure;BME280_temperature;BME280_humidity;BME280_pressure;Samples;Min_cycle;Max_cycle;Signal;HPM_P1;HPM_P2
2021/12/13 00:01:05;;;;;;;17.30;6.20;;;10.50;99.90;;;;;;5131346;28;20051;-74
2021/12/13 00:03:41;;;;;;;22.50;6.18;;;10.50;99.90;;;;;;5131199;27;20031;-74
2021/12/13 00:06:13;;;;;;;17.13;5.55;;;10.50;99.90;;;;;;5072682;28;20456;-74
2021/12/13 00:08:43;;;;;;;14.10;5.68;;;10.50;99.90;;;;;;5047640;28;20045;-73
2021/12/13 00:11:15;;;;;;;16.38;5.28;;;10.50;99.90;;;;;;5047170;28;20081;-76
2021/12/13 00:13:46;;;;;;;17.23;5.35;;;10.50;99.90;;;;;;5047224;28;20474;-74
2021/12/13 00:16:14;;;;;;;16.52;5.43;;;10.50;99.90;;;;;;5047084;28;20115;-74
2021/12/13 00:18:45;;;;;;;13.23;5.10;;;10.50;99.90;;;;;;5047152;28;20032;-74
2021/12/13 00:21:24;;;;;;;11.50;4.43;;;10.50;99.90;;;;;;5047002;28;20332;-74
2021/12/13 00:24:00;;;;;;;12.82;4.28;;;10.50;99.90;;;;;;5047173;28;20025;-74
2021/12/13 00:26:34;;;;;;;10.95;3.85;;;10.50;99.90;;;;;;5046825;28;20441;-74
2021/12/13 00:29:12;;;;;;;11.65;3.95;;;10.50;99.90;;;;;;5046963;28;20081;-74
2021/12/13 00:31:57;;;;;;;9.80;3.95;;;10.50;99.90;;;;;;5046870;28;20108;-74
2021/12/13 00:34:33;;;;;;;12.07;3.60;;;10.50;99.90;;;;;;5034615;28;20371;-74
2021/12/13 00:37:10;;;;;;;11.43;4.20;;;10.50;99.90;;;;;;5027026;28;20029;-74
2021/12/13 00:39:52;;;;;;;12.77;4.32;;;10.40;99.90;;;;;;5026865;28;20026;-74
2021/12/13 00:42:20;;;;;;;13.98;4.72;;;10.40;99.90;;;;;;5027210;28;20100;-74
2021/12/13 00:45:05;;;;;;;12.48;4.65;;;10.40;99.90;;;;;;5072152;28;20021;-73
2021/12/13 00:47:34;;;;;;;12.65;4.47;;;10.40;99.90;;;;;;5029457;28;20442;-74
2021/12/13 00:50:10;;;;;;;9.10;4.18;;;10.40;99.90;;;;;;5049569;28;20504;-74
2021/12/13 00:52:38;;;;;;;16.15;4.25;;;10.40;99.90;;;;;;5034728;28;20071;-74
2021/12/13 00:55:17;;;;;;;10.15;4.15;;;10.40;99.90;;;;;;5029289;28;20573;-74
2021/12/13 00:58:14;;;;;;;11.75;3.80;;;10.40;99.90;;;;;;5061517;27;20023;-74
2021/12/13 01:00:42;;;;;;;16.30;4.63;;;10.40;99.90;;;;;;5070257;27;20037;-74
2021/12/13 01:03:16;;;;;;;12.50;4.00;;;10.40;99.90;;;;;;5101028;27;20023;-75
2021/12/13 01:05:53;;;;;;;11.43;4.40;;;10.40;99.90;;;;;;5063769;27;20037;-75
2021/12/13 01:08:37;;;;;;;9.10;4.30;;;10.40;99.90;;;;;;5034955;28;20032;-74
2021/12/13 01:11:09;;;;;;;10.73;4.10;;;10.40;99.90;;;;;;5049715;28;20397;-75
2021/12/13 01:13:46;;;;;;;12.63;4.93;;;10.40;99.90;;;;;;5092564;27;20524;-75
2021/12/13 01:21:40;;;;;;;11.85;4.35;;;10.40;99.90;;;;;;5099492;27;20039;-75
2021/12/13 01:24:15;;;;;;;10.85;4.45;;;10.40;99.90;;;;;;5031913;28;20029;-75
2021/12/13 01:26:48;;;;;;;8.15;3.85;;;10.40;99.90;;;;;;5034141;28;20174;-75
2021/12/13 01:29:20;;;;;;;10.05;3.28;;;10.50;99.90;;;;;;5049649;28;20036;-75
2021/12/13 01:31:52;;;;;;;9.02;3.45;;;10.40;99.90;;;;;;5089674;27;20031;-75
2021/12/13 01:34:19;;;;;;;8.05;3.42;;;10.40;99.90;;;;;;5096949;27;20485;-75
2021/12/13 01:37:04;;;;;;;5.50;2.80;;;10.50;99.90;;;;;;5057993;27;20025;-75
2021/12/13 01:39:32;;;;;;;8.00;3.27;;;10.50;99.90;;;;;;5096457;27;20029;-75
2021/12/13 01:42:11;;;;;;;7.75;3.30;;;10.50;99.90;;;;;;5049123;28;20025;-75
2021/12/13 01:44:44;;;;;;;11.80;3.25;;;10.50;99.90;;;;;;5087023;27;20041;-75
2021/12/13 01:47:28;;;;;;;8.60;3.13;;;10.50;99.90;;;;;;5079101;27;20032;-75
2021/12/13 01:50:20;;;;;;;7.22;3.30;;;10.50;99.90;;;;;;5048982;28;20029;-75
2021/12/13 01:52:50;;;;;;;7.45;3.50;;;10.50;99.90;;;;;;5048805;28;20565;-75
2021/12/13 01:55:23;;;;;;;6.00;3.55;;;10.50;99.90;;;;;;5128083;27;20031;-75
2021/12/13 01:58:08;;;;;;;12.07;3.90;;;10.50;99.90;;;;;;5067750;27;20032;-75
2021/12/13 02:04:07;;;;;;;11.38;4.50;;;10.50;99.90;;;;;;4969953;28;20073;-75
2021/12/13 02:06:36;;;;;;;12.95;4.90;;;10.50;99.90;;;;;;4977369;28;20054;-75
2021/12/13 02:09:08;;;;;;;12.63;4.75;;;10.50;99.90;;;;;;4986569;28;20035;-75
2021/12/13 02:11:35;;;;;;;13.45;4.93;;;10.50;99.90;;;;;;4982946;28;20118;-75
2021/12/13 02:14:17;;;;;;;9.52;5.05;;;10.50;99.90;;;;;;4970155;28;20428;-75
2021/12/13 02:17:02;;;;;;;7.90;4.10;;;10.50;99.90;;;;;;4980853;28;20046;-75
2021/12/13 02:20:00;;;;;;;11.25;5.25;;;10.50;99.90;;;;;;4986663;28;20580;-75
2021/12/13 02:22:25;;;;;;;10.82;4.65;;;10.40;99.90;;;;;;4991465;28;20043;-75
2021/12/13 02:24:53;;;;;;;9.57;4.93;;;10.40;99.90;;;;;;4986297;28;20034;-76
2021/12/13 02:27:24;;;;;;;13.60;5.30;;;10.40;99.90;;;;;;4981511;28;20085;-75
2021/12/13 02:29:53;;;;;;;13.43;5.72;;;10.40;99.90;;;;;;4971063;28;20107;-75
2021/12/13 02:32:19;;;;;;;10.38;6.25;;;10.40;99.90;;;;;;4980726;28;20480;-76
2021/12/13 02:34:46;;;;;;;13.90;6.65;;;10.40;99.90;;;;;;5024625;28;20044;-75
2021/12/13 02:37:13;;;;;;;10.40;7.15;;;10.40;99.90;;;;;;5063693;27;20017;-75
2021/12/13 02:39:48;;;;;;;13.43;7.70;;;10.30;99.90;;;;;;5048497;28;20101;-75
2021/12/13 02:42:17;;;;;;;15.38;7.95;;;10.40;99.90;;;;;;5048257;28;20028;-76
2021/12/13 02:44:48;;;;;;;16.23;8.07;;;10.40;99.90;;;;;;5088904;27;20072;-76
2021/12/13 02:47:26;;;;;;;15.10;8.15;;;10.40;99.90;;;;;;5070004;27;20545;-75
2021/12/13 02:49:52;;;;;;;17.30;9.23;;;10.40;99.90;;;;;;5048617;28;20025;-76
2021/12/13 02:52:22;;;;;;;15.13;8.85;;;10.40;99.90;;;;;;5047907;28;20501;-76
2021/12/13 02:54:53;;;;;;;17.13;9.07;;;10.40;99.90;;;;;;5048137;28;20070;-75
2021/12/13 02:57:28;;;;;;;14.18;9.48;;;10.40;99.90;;;;;;5047857;28;20538;-75
2021/12/13 03:00:13;;;;;;;17.70;9.10;;;10.40;99.90;;;;;;5048298;28;20037;-74
2021/12/13 03:02:43;;;;;;;18.17;9.50;;;10.40;99.90;;;;;;5115560;27;20107;-74
2021/12/13 03:05:14;;;;;;;17.20;9.43;;;10.40;99.90;;;;;;5092908;27;20137;-74
2021/12/13 03:07:44;;;;;;;16.98;10.05;;;10.40;99.90;;;;;;5094651;27;20120;-74
2021/12/13 03:10:20;;;;;;;16.85;9.98;;;10.40;99.90;;;;;;5048291;28;20493;-74
2021/12/13 03:12:46;;;;;;;25.73;16.98;;;10.40;99.90;;;;;;5052784;27;20036;-74
2021/12/13 03:15:16;;;;;;;16.38;9.60;;;10.50;99.90;;;;;;5098343;27;20392;-74
2021/12/13 03:17:56;;;;;;;19.80;10.00;;;10.40;99.90;;;;;;5096069;27;20017;-74
2021/12/13 03:20:33;;;;;;;18.55;9.75;;;10.40;99.90;;;;;;5109312;27;20034;-74
2021/12/13 03:23:08;;;;;;;18.60;10.20;;;10.40;99.90;;;;;;5059372;27;20018;-74
2021/12/13 03:26:06;;;;;;;16.52;9.95;;;10.40;99.90;;;;;;5027859;28;20048;-74
2021/12/13 03:28:50;;;;;;;17.20;9.80;;;10.40;99.90;;;;;;5043404;28;20054;-75
2021/12/13 03:31:24;;;;;;;18.77;9.40;;;10.40;99.90;;;;;;5047861;28;20496;-75
2021/12/13 03:34:12;;;;;;;18.02;9.77;;;10.40;99.90;;;;;;5047849;28;20098;-75
2021/12/13 03:36:50;;;;;;;15.00;9.57;;;10.40;99.90;;;;;;5047847;28;20104;-75
2021/12/13 03:39:26;;;;;;;14.90;9.02;;;10.40;99.90;;;;;;5047721;28;20481;-75
2021/12/13 03:41:54;;;;;;;14.75;8.95;;;10.40;99.90;;;;;;5047450;28;20546;-75
2021/12/13 03:44:27;;;;;;;13.70;8.32;;;10.40;99.90;;;;;;5046930;28;20029;-75
2021/12/13 03:47:07;;;;;;;16.23;9.05;;;10.40;99.90;;;;;;5047441;28;20033;-75
2021/12/13 03:49:39;;;;;;;19.30;9.38;;;10.40;99.90;;;;;;5047427;28;20205;-75
2021/12/13 03:52:06;;;;;;;16.25;9.02;;;10.40;99.90;;;;;;5047227;28;20505;-75
2021/12/13 03:54:38;;;;;;;14.65;8.05;;;10.40;99.90;;;;;;5047146;28;20100;-75
2021/12/13 03:57:05;;;;;;;12.70;8.75;;;10.40;99.90;;;;;;5047161;28;20053;-75
2021/12/13 03:59:34;;;;;;;13.02;8.25;;;10.40;99.90;;;;;;5047139;28;20021;-75
2021/12/13 04:02:04;;;;;;;15.65;8.60;;;10.40;99.90;;;;;;5047006;28;20089;-75
2021/12/13 04:04:40;;;;;;;14.07;8.55;;;10.40;99.90;;;;;;5047707;28;20021;-75
2021/12/13 04:07:15;;;;;;;14.35;7.63;;;10.40;99.90;;;;;;5038050;28;20079;-75
2021/12/13 04:09:44;;;;;;;16.05;8.57;;;10.40;99.90;;;;;;5027838;28;20022;-75
2021/12/13 04:12:14;;;;;;;14.27;8.35;;;10.40;99.90;;;;;;5027752;28;20132;-75
2021/12/13 04:14:51;;;;;;;14.68;7.70;;;10.40;99.90;;;;;;5027272;28;20013;-74
2021/12/13 04:17:35;;;;;;;14.88;7.93;;;10.40;99.90;;;;;;5027622;28;20045;-75
2021/12/13 04:20:06;;;;;;;14.88;7.38;;;10.40;99.90;;;;;;5032566;28;20014;-75
2021/12/13 04:22:36;;;;;;;12.80;7.53;;;10.40;99.90;;;;;;5046564;27;20126;-75
2021/12/13 04:25:15;;;;;;;12.18;7.22;;;10.40;99.90;;;;;;5075337;28;20055;-75
2021/12/13 04:27:44;;;;;;;12.38;6.55;;;10.40;99.90;;;;;;5077613;27;20571;-75
2021/12/13 04:30:37;;;;;;;14.82;6.65;;;10.40;99.90;;;;;;5053980;27;20028;-75
2021/12/13 04:33:20;;;;;;;12.10;6.97;;;10.40;99.90;;;;;;5040619;28;20447;-75
2021/12/13 04:35:51;;;;;;;15.25;6.50;;;10.40;99.90;;;;;;5030755;28;20032;-75
2021/12/13 04:38:22;;;;;;;13.35;6.57;;;10.40;99.90;;;;;;5049819;28;20500;-75
2021/12/13 04:40:52;;;;;;;10.15;6.68;;;10.40;99.90;;;;;;5050724;28;20078;-75
2021/12/13 04:43:19;;;;;;;11.60;6.50;;;10.40;99.90;;;;;;5050268;28;20033;-74
2021/12/13 04:45:54;;;;;;;11.60;6.40;;;10.40;99.90;;;;;;5049693;28;20029;-75
2021/12/13 04:48:21;;;;;;;;;;;10.40;99.90;;;;;;5048908;28;20041;-75
2021/12/13 04:50:47;;;;;;;15.05;6.55;;;10.40;99.90;;;;;;5030230;28;19959;-75
2021/12/13 04:53:30;;;;;;;12.18;5.63;;;10.40;99.90;;;;;;5030292;28;20467;-75
2021/12/13 04:56:00;;;;;;;11.75;6.10;;;10.40;99.90;;;;;;5049363;27;20406;-75
2021/12/13 04:58:26;;;;;;;11.50;6.07;;;10.40;99.90;;;;;;5051237;27;20056;-75
2021/12/13 05:00:56;;;;;;;9.32;5.72;;;10.40;99.90;;;;;;5088034;27;20414;-75
2021/12/13 05:03:26;;;;;;;8.35;5.60;;;10.40;99.90;;;;;;5037100;28;20064;-75
2021/12/13 05:05:52;;;;;;;13.02;5.53;;;10.40;99.90;;;;;;5050178;28;20470;-74
2021/12/13 05:08:19;;;;;;;12.20;5.53;;;10.40;99.90;;;;;;5049747;28;20056;-75
2021/12/13 05:10:48;;;;;;;13.35;5.70;;;10.40;99.90;;;;;;5050048;28;20021;-74
2021/12/13 05:13:23;;;;;;;9.65;5.28;;;10.40;99.90;;;;;;5068251;27;20033;-74
2021/12/13 05:16:09;;;;;;;;;;;10.40;99.90;;;;;;5113840;27;20420;-75
2021/12/13 05:18:44;;;;;;;10.27;5.47;;;10.40;99.90;;;;;;5036894;28;20436;-75
2021/12/13 05:21:26;;;;;;;10.95;5.20;;;10.40;99.90;;;;;;5041795;28;20481;-75
2021/12/13 05:23:56;;;;;;;9.70;5.18;;;10.40;99.90;;;;;;5038666;28;20085;-75
2021/12/13 05:27:22;;;;;;;16.30;5.18;;;10.40;99.90;;;;;;5049041;28;20045;-75
2021/12/13 05:29:51;;;;;;;10.65;5.28;;;10.40;99.90;;;;;;5090714;28;20035;-75
2021/12/13 05:32:25;;;;;;;12.30;5.35;;;10.40;99.90;;;;;;5097367;28;20040;-75
2021/12/13 05:35:08;;;;;;;11.53;5.00;;;10.40;99.90;;;;;;5103651;28;20042;-75
2021/12/13 05:37:42;;;;;;;12.82;4.82;;;10.40;99.90;;;;;;5110888;28;20469;-75
2021/12/13 05:40:16;;;;;;;10.10;4.80;;;10.40;99.90;;;;;;5085516;28;20106;-73
2021/12/13 05:42:49;;;;;;;7.35;4.78;;;10.40;99.90;;;;;;5089164;28;20024;-75
2021/12/13 05:45:30;;;;;;;9.55;4.85;;;10.40;99.90;;;;;;5089646;28;20161;-75
2021/12/13 05:48:02;;;;;;;10.38;4.55;;;10.40;99.90;;;;;;5090091;28;20036;-75
2021/12/13 05:50:51;;;;;;;9.60;5.03;;;10.40;99.90;;;;;;5090372;28;20035;-74
2021/12/13 05:53:24;;;;;;;9.07;4.57;;;10.50;99.90;;;;;;5087772;28;20410;-75
2021/12/13 05:55:55;;;;;;;9.55;4.47;;;10.50;99.90;;;;;;5091902;28;20024;-75
2021/12/13 05:58:33;;;;;;;7.68;4.60;;;10.50;99.90;;;;;;5107315;28;20527;-75
2021/12/13 06:01:00;;;;;;;10.38;4.78;;;10.50;99.90;;;;;;5069237;28;20029;-75
2021/12/13 06:03:35;;;;;;;7.72;4.32;;;10.50;99.90;;;;;;5040319;28;20351;-76
2021/12/13 06:06:10;;;;;;;10.20;4.40;;;10.50;99.90;;;;;;5027439;28;20353;-76
2021/12/13 06:08:48;;;;;;;8.63;4.57;;;10.50;99.90;;;;;;5026485;28;20037;-73
2021/12/13 06:11:18;;;;;;;11.57;4.53;;;10.50;99.90;;;;;;5027793;28;20029;-74
2021/12/13 06:13:43;;;;;;;8.73;5.00;;;10.50;99.90;;;;;;5027925;28;20029;-75
2021/12/13 06:16:33;;;;;;;13.40;5.57;;;10.50;99.90;;;;;;5028600;28;20072;-74
2021/12/13 06:19:29;;;;;;;12.02;7.10;;;10.40;99.90;;;;;;5108809;28;20028;-74
2021/12/13 06:21:54;;;;;;;12.95;7.80;;;10.40;99.90;;;;;;5109688;28;20087;-74
2021/12/13 06:24:39;;;;;;;16.42;8.40;;;10.40;99.90;;;;;;5109728;28;20609;-74
2021/12/13 06:27:18;;;;;;;13.32;8.82;;;10.30;99.90;;;;;;5109619;28;20509;-75
2021/12/13 06:29:59;;;;;;;15.18;9.13;;;10.30;99.90;;;;;;5113149;27;20078;-74
2021/12/13 06:33:00;;;;;;;13.32;9.10;;;10.20;99.90;;;;;;5117836;27;20059;-74
2021/12/13 06:35:45;;;;;;;18.13;9.55;;;10.20;99.90;;;;;;5123176;27;20106;-75
2021/12/13 06:38:20;;;;;;;17.17;10.23;;;10.20;99.90;;;;;;5112361;27;20035;-74
2021/12/13 06:40:58;;;;;;;16.02;10.20;;;10.10;99.90;;;;;;5126094;27;20116;-75
2021/12/13 06:43:35;;;;;;;19.58;10.80;;;10.10;99.90;;;;;;5126310;27;20031;-74
2021/12/13 06:46:05;;;;;;;19.23;11.27;;;10.10;99.90;;;;;;5124170;27;20082;-74
2021/12/13 06:48:37;;;;;;;21.33;11.40;;;10.10;99.90;;;;;;5125594;27;20027;-74
2021/12/13 06:51:05;;;;;;;19.45;12.35;;;10.10;99.90;;;;;;5126893;27;20024;-75
2021/12/13 06:53:30;;;;;;;22.00;13.00;;;10.10;99.90;;;;;;5108927;27;20039;-74
2021/12/13 06:55:56;;;;;;;24.08;13.45;;;10.10;99.90;;;;;;5082089;27;20106;-75
2021/12/13 06:58:28;;;;;;;25.77;13.82;;;10.10;99.90;;;;;;5031198;28;20048;-75
2021/12/13 07:01:03;;;;;;;22.80;14.25;;;10.00;99.90;;;;;;5046434;28;20459;-75
2021/12/13 07:03:34;;;;;;;23.80;14.35;;;10.10;99.90;;;;;;5046133;28;20022;-75
2021/12/13 07:06:02;;;;;;;29.65;14.98;;;10.00;99.90;;;;;;5035660;28;20116;-75
2021/12/13 07:08:35;;;;;;;28.85;15.68;;;10.00;99.90;;;;;;5043881;28;20482;-75
2021/12/13 07:11:12;;;;;;;26.65;15.27;;;10.00;99.90;;;;;;5044984;28;20492;-75
2021/12/13 07:13:48;;;;;;;32.90;15.77;;;10.00;99.90;;;;;;5042260;28;20039;-75
2021/12/13 07:16:22;;;;;;;27.35;16.23;;;10.00;99.90;;;;;;5048078;28;20032;-76
2021/12/13 07:18:54;;;;;;;27.50;16.25;;;10.00;99.90;;;;;;5043813;28;20098;-75
2021/12/13 07:21:26;;;;;;;30.55;16.73;;;10.00;99.90;;;;;;5042590;28;20091;-75
2021/12/13 07:24:02;;;;;;;30.95;16.83;;;10.00;99.90;;;;;;5029862;28;20025;-75
2021/12/13 07:26:35;;;;;;;28.35;16.30;;;10.00;99.90;;;;;;5033133;28;20041;-75
2021/12/13 07:29:03;;;;;;;31.40;16.80;;;10.00;99.90;;;;;;5037369;28;20048;-75
2021/12/13 07:31:29;;;;;;;31.73;16.77;;;10.00;99.90;;;;;;5032018;28;20434;-75
2021/12/13 07:34:07;;;;;;;29.38;16.35;;;10.00;99.90;;;;;;5038469;28;20366;-75
2021/12/13 07:36:33;;;;;;;30.98;15.82;;;10.00;99.90;;;;;;5043540;28;20470;-75
2021/12/13 07:39:06;;;;;;;30.27;15.20;;;10.00;99.90;;;;;;5046420;28;20021;-75
2021/12/13 07:41:54;;;;;;;29.77;16.90;;;10.00;99.90;;;;;;5046962;28;20056;-75
2021/12/13 07:44:33;;;;;;;30.77;17.02;;;10.00;99.90;;;;;;5033150;28;20025;-74
2021/12/13 07:47:18;;;;;;;30.20;16.00;;;10.00;99.90;;;;;;5032934;27;20032;-75
2021/12/13 07:49:56;;;;;;;31.00;16.48;;;10.00;99.90;;;;;;5027377;28;20056;-74
2021/12/13 07:52:24;;;;;;;30.60;15.45;;;10.00;99.90;;;;;;5035021;28;20069;-75
2021/12/13 07:54:50;;;;;;;27.75;15.77;;;10.00;99.90;;;;;;5039311;28;20024;-75
2021/12/13 07:57:45;;;;;;;27.77;15.77;;;10.00;99.90;;;;;;5037288;28;20021;-74
2021/12/13 08:00:27;;;;;;;31.00;16.23;;;10.00;99.90;;;;;;5041798;28;20557;-75
2021/12/13 08:03:03;;;;;;;28.90;16.48;;;10.00;99.90;;;;;;5039930;28;20518;-75
2021/12/13 08:05:38;;;;;;;30.05;15.65;;;10.00;99.90;;;;;;5043750;28;20072;-75
2021/12/13 08:08:08;;;;;;;30.65;14.60;;;10.00;99.90;;;;;;5041313;28;20263;-75
2021/12/13 08:10:40;;;;;;;29.35;15.90;;;10.00;99.90;;;;;;5043510;28;20022;-74
2021/12/13 08:13:06;;;;;;;27.83;14.95;;;10.00;99.90;;;;;;5030357;28;20029;-75
2021/12/13 08:15:43;;;;;;;30.58;15.27;;;10.00;99.90;;;;;;5038682;28;20051;-74
2021/12/13 08:18:37;;;;;;;27.33;14.75;;;10.00;99.90;;;;;;5045999;28;20040;-75
2021/12/13 08:21:17;;;;;;;24.50;13.77;;;10.00;99.90;;;;;;5045192;28;20209;-75
2021/12/13 08:23:48;;;;;;;24.88;14.07;;;10.00;99.90;;;;;;5043627;28;20044;-75
2021/12/13 08:26:23;;;;;;;28.05;13.10;;;10.00;99.90;;;;;;5040375;28;20149;-75
2021/12/13 08:28:51;;;;;;;24.42;14.15;;;10.10;99.90;;;;;;5037110;27;20479;-75
2021/12/13 08:31:24;;;;;;;23.88;13.40;;;10.10;99.90;;;;;;5038228;28;21559;-75
2021/12/13 08:33:54;;;;;;;28.42;13.85;;;10.10;99.90;;;;;;5030434;28;20124;-75
2021/12/13 08:36:44;;;;;;;27.15;14.65;;;10.10;99.90;;;;;;5030587;28;20306;-75
2021/12/13 08:39:33;;;;;;;25.15;13.55;;;10.10;99.90;;;;;;5039723;28;20025;-75
2021/12/13 08:42:11;;;;;;;28.98;15.05;;;10.10;99.90;;;;;;5040652;28;20421;-76
2021/12/13 08:44:45;;;;;;;27.35;14.02;;;10.10;99.90;;;;;;5041989;28;20021;-75
2021/12/13 08:47:16;;;;;;;26.85;14.15;;;10.10;99.90;;;;;;5044336;28;20530;-75
2021/12/13 08:49:48;;;;;;;25.95;14.75;;;10.10;99.90;;;;;;5038393;28;20029;-74
2021/12/13 08:52:13;;;;;;;30.70;14.88;;;10.10;99.90;;;;;;5049669;28;20085;-74
2021/12/13 08:54:45;;;;;;;26.48;14.60;;;10.10;99.90;;;;;;5040803;28;20021;-74
2021/12/13 08:57:54;;;;;;;26.98;14.00;;;10.10;99.90;;;;;;5030383;28;20428;-74
2021/12/13 09:00:33;;;;;;;28.30;14.40;;;10.10;99.90;;;;;;5053211;28;20453;-74
2021/12/13 09:03:26;;;;;;;27.58;14.30;;;10.20;99.90;;;;;;5041067;28;20017;-76
2021/12/13 09:06:17;;;;;;;30.20;14.55;;;10.20;99.90;;;;;;5032924;28;20482;-74
2021/12/13 09:08:50;;;;;;;23.83;14.55;;;10.20;99.90;;;;;;5032895;28;20095;-73
2021/12/13 09:11:34;;;;;;;30.52;16.35;;;10.20;99.90;;;;;;5029368;28;20068;-74
2021/12/13 09:14:05;;;;;;;22.23;12.68;;;10.20;99.90;;;;;;5028979;28;20146;-74
2021/12/13 09:16:56;;;;;;;23.77;11.93;;;10.20;99.90;;;;;;5031941;28;20033;-74
2021/12/13 09:19:29;;;;;;;25.80;12.52;;;10.30;99.90;;;;;;5030765;28;20013;-74
2021/12/13 09:22:08;;;;;;;23.67;12.73;;;10.30;99.90;;;;;;5029537;28;20029;-74
2021/12/13 09:24:37;;;;;;;26.33;12.52;;;10.30;99.90;;;;;;5029546;28;20036;-74
2021/12/13 09:27:11;;;;;;;22.58;12.27;;;10.40;99.90;;;;;;5030955;28;20475;-74
2021/12/13 09:30:04;;;;;;;24.65;12.35;;;10.40;99.90;;;;;;5049712;27;20039;-74
2021/12/13 09:32:39;;;;;;;28.20;13.52;;;10.40;99.90;;;;;;5030365;28;20478;-74
2021/12/13 09:35:37;;;;;;;26.13;11.93;;;10.40;99.90;;;;;;5041095;28;20024;-75
2021/12/13 09:38:23;;;;;;;21.20;11.82;;;10.50;99.90;;;;;;5045228;27;20128;-74
2021/12/13 09:40:54;;;;;;;27.50;11.55;;;10.50;99.90;;;;;;5042033;28;20086;-75
2021/12/13 09:43:22;;;;;;;24.60;11.77;;;10.50;99.90;;;;;;5044262;28;20082;-76
2021/12/13 09:45:53;;;;;;;22.20;10.90;;;10.50;99.90;;;;;;5035214;28;20056;-74
2021/12/13 09:48:33;;;;;;;22.77;12.60;;;10.50;99.90;;;;;;5031219;28;20037;-75
2021/12/13 09:51:07;;;;;;;24.77;11.20;;;10.50;99.90;;;;;;5030647;28;20037;-74
2021/12/13 09:53:37;;;;;;;22.15;10.70;;;10.60;99.90;;;;;;5029785;28;20037;-74
2021/12/13 09:56:09;;;;;;;19.70;11.50;;;10.60;99.90;;;;;;5044334;28;20037;-74
2021/12/13 09:58:47;;;;;;;22.20;11.82;;;10.60;99.90;;;;;;5031866;28;20053;-74
2021/12/13 10:01:16;;;;;;;21.67;10.43;;;10.60;99.90;;;;;;5052668;28;20037;-74
2021/12/13 10:03:53;;;;;;;23.95;11.35;;;10.70;99.90;;;;;;5029291;28;20030;-74
2021/12/13 10:06:27;;;;;;;19.83;10.45;;;10.60;99.90;;;;;;5027511;28;20025;-76
2021/12/13 10:09:08;;;;;;;20.67;10.55;;;10.70;99.90;;;;;;5033763;28;20060;-74
2021/12/13 10:11:45;;;;;;;24.35;11.30;;;10.70;99.90;;;;;;5047721;28;20489;-74
2021/12/13 10:14:12;;;;;;;21.13;10.98;;;10.70;99.90;;;;;;5037470;28;20036;-74
2021/12/13 10:16:42;;;;;;;23.23;11.48;;;10.70;99.90;;;;;;5042888;28;20051;-75
2021/12/13 10:19:13;;;;;;;20.15;11.02;;;10.80;99.90;;;;;;5047656;28;20032;-74
2021/12/13 10:21:42;;;;;;;22.45;11.43;;;10.80;99.90;;;;;;5044999;28;20035;-74
2021/12/13 10:24:28;;;;;;;21.95;11.45;;;10.80;99.90;;;;;;5046870;28;20085;-75
2021/12/13 10:26:57;;;;;;;21.10;11.20;;;10.80;99.90;;;;;;5040292;28;20071;-75
2021/12/13 10:29:24;;;;;;;21.85;11.10;;;10.80;99.90;;;;;;5054444;28;20384;-75
2021/12/13 10:32:04;;;;;;;23.30;12.30;;;10.80;99.90;;;;;;5040208;28;20472;-74
2021/12/13 10:34:34;;;;;;;21.38;12.85;;;10.90;99.90;;;;;;5047136;28;20389;-74
2021/12/13 10:37:12;;;;;;;22.25;11.38;;;10.80;99.90;;;;;;5048150;28;20081;-75
2021/12/13 10:39:44;;;;;;;22.55;12.25;;;10.90;99.90;;;;;;5044019;28;20033;-75
2021/12/13 10:42:23;;;;;;;24.08;12.57;;;10.90;99.90;;;;;;5028690;28;20022;-75
2021/12/13 10:44:49;;;;;;;24.05;12.90;;;10.90;99.90;;;;;;5029074;28;20024;-75
2021/12/13 10:47:38;;;;;;;25.95;14.00;;;10.90;99.90;;;;;;5048389;28;20096;-75
2021/12/13 10:50:12;;;;;;;27.13;14.68;;;10.90;99.90;;;;;;5046607;28;20052;-75
2021/12/13 10:52:41;;;;;;;29.92;14.38;;;10.90;99.90;;;;;;5048364;28;20040;-75
2021/12/13 10:55:12;;;;;;;28.25;15.07;;;10.90;99.90;;;;;;5044077;28;20090;-75
2021/12/13 10:57:43;;;;;;;29.08;15.10;;;10.90;99.90;;;;;;5028492;28;20025;-75
2021/12/13 11:00:32;;;;;;;32.20;15.13;;;11.00;99.90;;;;;;5028562;28;20030;-75
2021/12/13 11:03:03;;;;;;;28.33;15.07;;;10.90;99.90;;;;;;5027391;28;20041;-76
2021/12/13 11:05:29;;;;;;;27.83;14.50;;;10.90;99.90;;;;;;5031073;28;20397;-75
2021/12/13 11:07:57;;;;;;;29.55;15.80;;;10.90;99.90;;;;;;5032457;28;20025;-75
2021/12/13 11:10:28;;;;;;;30.65;14.95;;;10.90;99.90;;;;;;5047228;28;20076;-75
2021/12/13 11:12:56;;;;;;;30.83;15.35;;;10.90;99.90;;;;;;5034040;28;20034;-76
2021/12/13 11:15:27;;;;;;;27.48;15.40;;;10.90;99.90;;;;;;5028145;28;20018;-75
2021/12/13 11:17:55;;;;;;;44.75;21.08;;;10.90;99.90;;;;;;5028021;28;20033;-75
2021/12/13 11:20:34;;;;;;;35.05;17.27;;;11.00;99.90;;;;;;5029904;28;20022;-75
2021/12/13 11:23:01;;;;;;;29.23;15.43;;;11.00;99.90;;;;;;5047792;28;20074;-75
2021/12/13 11:25:48;;;;;;;32.40;15.73;;;11.00;99.90;;;;;;5047219;28;20557;-75
2021/12/13 11:28:15;;;;;;;33.00;15.32;;;10.90;99.90;;;;;;5029872;28;20042;-75
2021/12/13 11:30:42;;;;;;;32.20;16.27;;;10.90;99.90;;;;;;5029874;28;20025;-75
2021/12/13 11:33:29;;;;;;;31.27;15.30;;;11.00;99.90;;;;;;5030329;28;20032;-74
2021/12/13 11:36:07;;;;;;;31.10;15.35;;;10.90;99.90;;;;;;5047309;28;20081;-75
2021/12/13 11:39:05;;;;;;;30.45;15.43;;;11.00;99.90;;;;;;5047191;28;20021;-75
2021/12/13 11:42:10;;;;;;;27.20;14.55;;;10.90;99.90;;;;;;5047040;27;20410;-75
2021/12/13 11:45:10;;;;;;;28.08;14.60;;;10.90;99.90;;;;;;5050913;28;20048;-74
2021/12/13 11:48:09;;;;;;;29.17;15.32;;;10.90;99.90;;;;;;5055637;27;20025;-74
2021/12/13 11:50:56;;;;;;;30.45;15.55;;;11.00;99.90;;;;;;5026479;28;20362;-74
2021/12/13 11:53:49;;;;;;;32.33;14.68;;;10.90;99.90;;;;;;5026427;28;20033;-74
2021/12/13 11:56:37;;;;;;;30.45;15.55;;;10.90;99.90;;;;;;5043374;28;20029;-74
2021/12/13 11:59:10;;;;;;;29.92;14.75;;;10.90;99.90;;;;;;5036173;28;20453;-74
2021/12/13 12:01:43;;;;;;;29.83;15.18;;;10.90;99.90;;;;;;5028766;27;20043;-75
2021/12/13 12:04:36;;;;;;;28.70;15.50;;;10.90;99.90;;;;;;5030232;28;20382;-75
2021/12/13 12:07:14;;;;;;;28.88;14.63;;;10.90;99.90;;;;;;5043923;27;20108;-75
2021/12/13 12:10:19;;;;;;;26.95;14.15;;;11.00;99.90;;;;;;5031816;28;20025;-75
2021/12/13 12:12:57;;;;;;;22.95;13.45;;;11.00;99.90;;;;;;5026413;28;20025;-75
2021/12/13 12:15:25;;;;;;;31.42;14.75;;;11.00;99.90;;;;;;5043564;28;20469;-75
2021/12/13 12:17:54;;;;;;;29.63;14.50;;;11.00;99.90;;;;;;5043682;28;20108;-75
2021/12/13 12:20:45;;;;;;;26.73;14.18;;;11.00;99.90;;;;;;5031759;28;20337;-75
2021/12/13 12:23:30;;;;;;;22.33;13.27;;;11.10;99.90;;;;;;5046062;28;20027;-75
2021/12/13 12:25:59;;;;;;;29.67;14.45;;;11.10;99.90;;;;;;5026850;28;20061;-75
2021/12/13 12:28:28;;;;;;;28.73;13.70;;;11.10;99.90;;;;;;5039732;28;20088;-75
2021/12/13 12:30:57;;;;;;;23.10;12.57;;;11.00;99.90;;;;;;5046759;28;20041;-75
2021/12/13 12:33:30;;;;;;;21.90;11.85;;;11.10;99.90;;;;;;5040289;28;20030;-75
2021/12/13 12:36:00;;;;;;;23.40;12.57;;;11.10;99.90;;;;;;5028559;28;20026;-75
2021/12/13 12:38:25;;;;;;;24.02;11.73;;;11.10;99.90;;;;;;5027334;28;20025;-75
2021/12/13 12:41:06;;;;;;;24.25;12.23;;;11.00;99.90;;;;;;5026093;28;20032;-75
2021/12/13 12:43:41;;;;;;;23.17;11.52;;;11.10;99.90;;;;;;5026605;28;20456;-75
2021/12/13 12:46:13;;;;;;;24.23;11.20;;;11.00;99.90;;;;;;5040839;28;20032;-75
2021/12/13 12:48:42;;;;;;;24.02;11.88;;;11.00;99.90;;;;;;5045902;28;20025;-75
2021/12/13 12:51:19;;;;;;;19.98;10.88;;;11.00;99.90;;;;;;5045996;28;20419;-74
2021/12/13 12:54:07;;;;;;;29.65;13.85;;;11.00;99.90;;;;;;5030428;28;20021;-75
2021/12/13 12:56:35;;;;;;;22.92;11.98;;;11.00;99.90;;;;;;5030004;28;20029;-74
2021/12/13 12:59:09;;;;;;;20.20;11.20;;;11.00;99.90;;;;;;5037343;28;20405;-74
2021/12/13 13:01:42;;;;;;;19.65;11.27;;;11.00;99.90;;;;;;5049014;28;20037;-74
2021/12/13 13:04:07;;;;;;;22.83;11.38;;;11.00;99.90;;;;;;5048106;28;20105;-74
2021/12/13 13:06:33;;;;;;;21.23;11.02;;;11.00;99.90;;;;;;5041820;28;20055;-75
2021/12/13 13:08:59;;;;;;;23.50;11.60;;;11.00;99.90;;;;;;5048807;28;20021;-75
2021/12/13 13:11:30;;;;;;;21.98;11.35;;;11.00;99.90;;;;;;5046671;28;20018;-75
2021/12/13 13:14:22;;;;;;;23.90;11.88;;;11.00;99.90;;;;;;5048197;28;20036;-75
2021/12/13 13:16:58;;;;;;;21.80;11.55;;;11.00;99.90;;;;;;5040327;28;20029;-74
2021/12/13 13:19:27;;;;;;;23.77;11.75;;;10.90;99.90;;;;;;5044598;28;20430;-74
2021/12/13 13:21:53;;;;;;;21.42;11.18;;;11.00;99.90;;;;;;5042405;27;20111;-74
2021/12/13 13:24:19;;;;;;;19.15;10.73;;;11.00;99.90;;;;;;5031155;28;20033;-74